createdAt,value
2019-05-19T00:01:12.501Z,9.90
2019-05-19T00:03:41.234Z,9.90
2019-05-19T00:06:10.079Z,9.80
2019-05-19T00:08:38.972Z,9.80
2019-05-19T00:11:07.780Z,9.80
2019-05-19T00:13:36.621Z,9.80
2019-05-19T00:16:05.436Z,9.80
2019-05-19T00:18:34.225Z,9.80
2019-05-19T00:21:03.069Z,9.80
2019-05-19T00:23:32.231Z,9.80
2019-05-19T00:26:01.084Z,9.70
2019-05-19T00:28:29.883Z,9.80
2019-05-19T00:30:58.754Z,9.80
2019-05-19T00:33:27.895Z,9.70
2019-05-19T00:35:56.686Z,9.80
2019-05-19T00:38:25.533Z,9.80
2019-05-19T00:40:54.333Z,9.80
2019-05-19T00:43:23.132Z,9.80
2019-05-19T00:45:52.542Z,9.80
2019-05-19T00:48:21.617Z,9.80
2019-05-19T00:50:50.448Z,9.80
2019-05-19T00:53:19.609Z,9.80
2019-05-19T00:55:48.955Z,9.80
2019-05-19T00:58:17.977Z,9.80
2019-05-19T01:00:46.777Z,9.80
2019-05-19T01:03:15.626Z,9.80
2019-05-19T01:05:44.411Z,9.80
2019-05-19T01:08:13.202Z,9.80
2019-05-19T01:10:41.981Z,9.80
2019-05-19T01:13:10.776Z,9.80
2019-05-19T01:15:39.883Z,9.80
2019-05-19T01:18:08.702Z,9.80
2019-05-19T01:20:37.502Z,9.80
2019-05-19T01:23:07.179Z,9.80
2019-05-19T01:25:36.306Z,9.80
2019-05-19T01:28:05.119Z,9.80
2019-05-19T01:30:33.963Z,9.80
2019-05-19T01:33:02.766Z,9.80
2019-05-19T01:35:31.569Z,9.80
2019-05-19T01:38:00.523Z,9.80
2019-05-19T01:40:29.325Z,9.80
2019-05-19T01:42:58.121Z,9.80
2019-05-19T01:45:27.025Z,9.80
2019-05-19T01:47:55.838Z,9.80
2019-05-19T01:50:24.693Z,9.80
2019-05-19T01:52:53.484Z,9.80
2019-05-19T01:55:22.287Z,9.80
2019-05-19T01:57:51.454Z,9.80
2019-05-19T02:00:20.349Z,9.70
2019-05-19T02:02:49.146Z,9.70
2019-05-19T02:05:18.090Z,9.70
2019-05-19T02:07:46.883Z,9.70
2019-05-19T02:10:15.904Z,9.70
2019-05-19T02:12:44.656Z,9.80
2019-05-19T02:15:13.672Z,9.70
2019-05-19T02:17:42.534Z,9.70
2019-05-19T02:20:11.722Z,9.70
2019-05-19T02:22:40.531Z,9.80
2019-05-19T02:25:11.084Z,9.70
2019-05-19T02:27:39.791Z,9.70
2019-05-19T02:30:09.414Z,9.70
2019-05-19T02:32:38.236Z,9.70
2019-05-19T02:35:07.167Z,9.70
2019-05-19T02:37:35.992Z,9.80
2019-05-19T02:40:06.593Z,9.80
2019-05-19T02:42:38.732Z,9.80
2019-05-19T02:45:08.147Z,9.70
2019-05-19T02:47:39.379Z,9.80
2019-05-19T02:50:09.491Z,9.70
2019-05-19T02:52:41.336Z,9.80
2019-05-19T02:55:10.462Z,9.80
2019-05-19T02:57:40.357Z,9.70
2019-05-19T03:00:10.080Z,9.70
2019-05-19T03:02:38.893Z,9.70
2019-05-19T03:05:08.118Z,9.70
2019-05-19T03:07:36.950Z,9.70
2019-05-19T03:10:07.049Z,9.80
2019-05-19T03:12:36.250Z,9.70
2019-05-19T03:15:06.062Z,9.70
2019-05-19T03:17:34.858Z,9.70
2019-05-19T03:20:04.500Z,9.70
2019-05-19T03:22:33.309Z,9.70
2019-05-19T03:25:03.622Z,9.70
2019-05-19T03:27:32.409Z,9.70
2019-05-19T03:30:19.366Z,9.70
2019-05-19T03:32:49.734Z,9.70
2019-05-19T03:35:18.565Z,9.70
2019-05-19T03:37:47.679Z,9.70
2019-05-19T03:40:21.018Z,9.80
2019-05-19T03:42:52.234Z,9.80
2019-05-19T03:45:21.094Z,9.80
2019-05-19T03:47:50.897Z,9.80
2019-05-19T03:50:19.682Z,9.80
2019-05-19T03:52:48.523Z,9.80
2019-05-19T03:55:17.411Z,9.80
2019-05-19T03:57:46.210Z,9.80
2019-05-19T04:00:15.550Z,9.80
2019-05-19T04:02:44.342Z,9.70
2019-05-19T04:05:13.405Z,9.80
2019-05-19T04:07:42.193Z,9.70
2019-05-19T04:10:11.331Z,9.80
2019-05-19T04:12:40.167Z,9.80
2019-05-19T04:15:09.261Z,9.70
2019-05-19T04:17:38.104Z,9.70
2019-05-19T04:20:07.512Z,9.70
2019-05-19T04:22:36.357Z,9.80
2019-05-19T04:25:06.059Z,9.80
2019-05-19T04:27:34.777Z,9.80
2019-05-19T04:30:03.740Z,9.80
2019-05-19T04:32:32.517Z,9.80
2019-05-19T04:35:01.362Z,9.80
2019-05-19T04:37:30.142Z,9.90
2019-05-19T04:39:58.893Z,9.90
2019-05-19T04:42:28.009Z,9.80
2019-05-19T04:44:56.843Z,9.90
2019-05-19T04:47:25.691Z,9.90
2019-05-19T04:49:54.456Z,9.90
2019-05-19T04:52:23.272Z,9.90
2019-05-19T04:54:52.060Z,9.90
2019-05-19T04:57:20.901Z,9.90
2019-05-19T04:59:49.700Z,9.90
2019-05-19T05:02:18.557Z,9.90
2019-05-19T05:04:47.386Z,9.90
2019-05-19T05:07:16.181Z,9.90
2019-05-19T05:09:44.925Z,9.90
2019-05-19T05:12:14.678Z,10.00
2019-05-19T05:14:43.508Z,9.90
2019-05-19T05:17:12.438Z,10.00
2019-05-19T05:19:41.150Z,10.00
2019-05-19T05:22:21.277Z,10.00
2019-05-19T05:24:40.887Z,10.00
2019-05-19T05:27:09.701Z,10.00
2019-05-19T05:29:38.432Z,10.00
2019-05-19T05:32:07.200Z,10.00
2019-05-19T05:34:36.011Z,10.00
2019-05-19T05:37:04.811Z,10.10
2019-05-19T05:39:35.220Z,10.10
2019-05-19T05:42:03.981Z,10.10
2019-05-19T05:44:32.769Z,10.10
2019-05-19T05:47:02.478Z,10.10
2019-05-19T05:49:31.328Z,10.20
2019-05-19T05:52:00.131Z,10.20
2019-05-19T05:54:28.964Z,10.20
2019-05-19T05:56:57.691Z,10.30
2019-05-19T05:59:26.490Z,10.40
2019-05-19T06:01:55.348Z,10.40
2019-05-19T06:04:24.145Z,10.40
2019-05-19T06:06:53.333Z,10.50
2019-05-19T06:09:22.175Z,10.50
2019-05-19T06:11:50.982Z,10.50
2019-05-19T06:14:20.044Z,10.60
2019-05-19T06:16:49.191Z,10.70
2019-05-19T06:19:17.986Z,10.60
2019-05-19T06:21:46.794Z,10.70
2019-05-19T06:24:16.541Z,10.70
2019-05-19T06:26:45.775Z,10.80
2019-05-19T06:29:14.868Z,10.90
2019-05-19T06:31:43.667Z,10.80
2019-05-19T06:34:12.511Z,10.90
2019-05-19T06:36:41.319Z,11.00
2019-05-19T06:39:10.117Z,11.10
2019-05-19T06:41:38.941Z,11.00
2019-05-19T06:44:07.747Z,11.00
2019-05-19T06:46:37.457Z,11.00
2019-05-19T06:49:06.377Z,11.00
2019-05-19T06:51:35.222Z,11.00
2019-05-19T06:54:04.020Z,11.00
2019-05-19T06:56:32.792Z,11.00
2019-05-19T06:59:01.582Z,11.10
2019-05-19T07:01:30.445Z,11.10
2019-05-19T07:03:59.627Z,11.20
2019-05-19T07:06:28.426Z,11.20
2019-05-19T07:08:57.218Z,11.30
2019-05-19T07:11:25.946Z,11.30
2019-05-19T07:13:54.757Z,11.40
2019-05-19T07:16:23.578Z,11.40
2019-05-19T07:18:52.394Z,11.40
2019-05-19T07:21:21.252Z,11.40
2019-05-19T07:23:50.053Z,11.40
2019-05-19T07:26:18.848Z,11.40
2019-05-19T07:28:47.690Z,11.40
2019-05-19T07:31:16.498Z,11.40
2019-05-19T07:33:46.460Z,11.40
2019-05-19T07:36:15.150Z,11.50
2019-05-19T07:38:43.959Z,11.50
2019-05-19T07:41:13.066Z,11.50
2019-05-19T07:43:41.913Z,11.50
2019-05-19T07:46:10.751Z,11.60
2019-05-19T07:48:39.572Z,11.60
2019-05-19T07:51:08.407Z,11.50
2019-05-19T07:53:43.034Z,11.60
2019-05-19T07:56:07.978Z,11.60
2019-05-19T07:58:36.703Z,11.60
2019-05-19T08:01:05.486Z,11.50
2019-05-19T08:03:34.512Z,11.50
2019-05-19T08:06:03.573Z,11.50
2019-05-19T08:08:32.618Z,11.40
2019-05-19T08:11:01.788Z,11.40
2019-05-19T08:13:30.653Z,11.40
2019-05-19T08:15:59.783Z,11.50
2019-05-19T08:18:28.980Z,11.40
2019-05-19T08:20:57.849Z,11.40
2019-05-19T08:23:26.946Z,11.40
2019-05-19T08:25:55.682Z,11.50
2019-05-19T08:28:25.414Z,11.50
2019-05-19T08:30:54.223Z,11.60
2019-05-19T08:33:23.339Z,11.70
2019-05-19T08:35:52.162Z,11.80
2019-05-19T08:38:21.086Z,11.90
2019-05-19T08:40:49.934Z,11.90
2019-05-19T08:43:18.767Z,12.10
2019-05-19T08:45:47.988Z,12.00
2019-05-19T08:48:16.763Z,12.20
2019-05-19T08:50:45.549Z,12.40
2019-05-19T08:53:14.429Z,12.50
2019-05-19T08:55:43.315Z,12.60
2019-05-19T08:58:12.163Z,12.70
2019-05-19T09:00:40.969Z,12.90
2019-05-19T09:03:09.772Z,13.20
2019-05-19T09:05:38.608Z,13.40
2019-05-19T09:08:07.346Z,13.60
2019-05-19T09:10:36.136Z,13.80
2019-05-19T09:13:04.992Z,13.90
2019-05-19T09:15:34.139Z,14.00
2019-05-19T09:18:02.988Z,13.90
2019-05-19T09:20:31.832Z,13.80
2019-05-19T09:23:00.623Z,13.90
2019-05-19T09:25:29.802Z,13.90
2019-05-19T09:27:59.092Z,14.00
2019-05-19T09:30:27.889Z,13.70
2019-05-19T09:32:56.671Z,13.70
2019-05-19T09:35:25.464Z,13.60
2019-05-19T09:37:54.288Z,13.60
2019-05-19T09:40:26.385Z,13.60
2019-05-19T09:42:53.931Z,13.50
2019-05-19T09:45:22.996Z,13.50
2019-05-19T09:47:52.167Z,13.40
2019-05-19T09:50:21.567Z,13.50
2019-05-19T09:52:50.409Z,13.50
2019-05-19T09:55:19.213Z,13.60
2019-05-19T09:57:48.039Z,13.70
2019-05-19T10:00:17.418Z,13.80
2019-05-19T10:02:46.247Z,13.90
2019-05-19T10:05:15.045Z,14.00
2019-05-19T10:07:43.899Z,14.00
2019-05-19T10:10:18.070Z,14.00
2019-05-19T10:12:46.827Z,14.00
2019-05-19T10:15:16.273Z,14.10
2019-05-19T10:17:45.385Z,14.10
2019-05-19T10:20:15.992Z,14.10
2019-05-19T10:22:44.787Z,14.20
2019-05-19T10:25:22.827Z,14.20
2019-05-19T10:27:44.820Z,14.40
2019-05-19T10:30:14.083Z,14.30
2019-05-19T10:32:42.921Z,14.30
2019-05-19T10:35:11.920Z,14.40
2019-05-19T10:37:40.720Z,14.40
2019-05-19T10:40:09.852Z,14.50
2019-05-19T10:42:38.654Z,14.40
2019-05-19T10:45:08.899Z,14.50
2019-05-19T10:47:38.102Z,14.50
2019-05-19T10:50:07.321Z,14.40
2019-05-19T10:52:36.131Z,14.50
2019-05-19T10:55:05.869Z,14.40
2019-05-19T10:57:34.713Z,14.30
2019-05-19T11:00:04.613Z,14.30
2019-05-19T11:02:33.446Z,14.30
2019-05-19T11:05:02.286Z,14.40
2019-05-19T11:07:31.130Z,14.40
2019-05-19T11:09:59.968Z,14.40
2019-05-19T11:12:28.705Z,14.50
2019-05-19T11:14:57.542Z,14.60
2019-05-19T11:17:26.353Z,14.70
2019-05-19T11:19:55.172Z,14.80
2019-05-19T11:22:24.395Z,14.90
2019-05-19T11:24:53.609Z,15.00
2019-05-19T11:27:22.691Z,15.10
2019-05-19T11:29:51.553Z,14.80
2019-05-19T11:32:20.352Z,14.90
2019-05-19T11:34:49.238Z,15.10
2019-05-19T11:37:18.048Z,15.50
2019-05-19T11:39:46.884Z,15.70
2019-05-19T11:42:15.677Z,15.90
2019-05-19T11:44:44.503Z,16.00
2019-05-19T11:47:13.721Z,16.30
2019-05-19T11:49:42.524Z,16.50
2019-05-19T11:52:11.277Z,16.70
2019-05-19T11:54:40.084Z,16.70
2019-05-19T11:57:08.846Z,16.70
2019-05-19T11:59:37.580Z,16.70
2019-05-19T12:02:06.497Z,16.90
2019-05-19T12:04:35.352Z,16.60
2019-05-19T12:07:04.150Z,16.70
2019-05-19T12:09:32.999Z,16.90
2019-05-19T12:12:02.204Z,16.90
2019-05-19T12:14:31.061Z,16.90
2019-05-19T12:16:59.858Z,16.90
2019-05-19T12:19:28.674Z,16.90
2019-05-19T12:21:57.500Z,16.90
2019-05-19T12:24:26.317Z,17.10
2019-05-19T12:26:55.161Z,17.00
2019-05-19T12:29:24.003Z,17.10
2019-05-19T12:31:53.109Z,17.10
2019-05-19T12:34:22.996Z,17.10
2019-05-19T12:36:53.081Z,17.20
2019-05-19T12:39:22.218Z,17.00
2019-05-19T12:41:51.018Z,16.90
2019-05-19T12:44:20.230Z,16.60
2019-05-19T12:46:49.319Z,16.70
2019-05-19T12:49:18.164Z,16.40
2019-05-19T12:51:46.981Z,16.20
2019-05-19T12:54:17.328Z,16.30
2019-05-19T12:56:46.123Z,16.40
2019-05-19T12:59:15.295Z,16.40
2019-05-19T13:01:44.206Z,16.60
2019-05-19T13:04:13.277Z,16.70
2019-05-19T13:06:42.447Z,16.90
2019-05-19T13:09:11.272Z,17.00
2019-05-19T13:11:40.118Z,16.80
2019-05-19T13:14:08.989Z,17.00
2019-05-19T13:16:37.796Z,16.60
2019-05-19T13:19:06.946Z,16.30
2019-05-19T13:21:35.671Z,16.20
2019-05-19T13:24:04.460Z,16.10
2019-05-19T13:26:33.301Z,16.20
2019-05-19T13:29:02.283Z,16.20
2019-05-19T13:31:31.082Z,16.40
2019-05-19T13:33:59.912Z,16.60
2019-05-19T13:36:28.758Z,16.50
2019-05-19T13:38:57.502Z,16.40
2019-05-19T13:41:26.338Z,16.70
2019-05-19T13:43:55.194Z,16.60
2019-05-19T13:46:23.968Z,16.60
2019-05-19T13:48:52.769Z,16.80
2019-05-19T13:51:21.570Z,16.90
2019-05-19T13:53:50.422Z,16.90
2019-05-19T13:56:19.550Z,17.00
2019-05-19T13:58:48.355Z,17.00
2019-05-19T14:01:28.013Z,17.10
2019-05-19T14:03:47.855Z,16.90
2019-05-19T14:06:16.722Z,16.50
2019-05-19T14:08:45.518Z,16.60
2019-05-19T14:11:14.625Z,16.80
2019-05-19T14:13:43.693Z,16.90
2019-05-19T14:16:12.607Z,17.00
2019-05-19T14:18:41.471Z,17.00
2019-05-19T14:21:10.368Z,16.90
2019-05-19T14:23:39.221Z,16.70
2019-05-19T14:26:08.051Z,16.70
2019-05-19T14:28:36.908Z,16.80
2019-05-19T14:31:06.079Z,16.90
2019-05-19T14:33:34.849Z,16.70
2019-05-19T14:36:03.697Z,16.30
2019-05-19T14:38:32.531Z,16.20
2019-05-19T14:41:01.720Z,16.10
2019-05-19T14:43:31.849Z,16.10
2019-05-19T14:46:00.933Z,16.30
2019-05-19T14:48:29.749Z,16.20
2019-05-19T14:50:58.914Z,16.10
2019-05-19T14:53:27.721Z,16.40
2019-05-19T14:55:56.578Z,16.70
2019-05-19T14:58:26.358Z,16.90
2019-05-19T15:00:55.089Z,16.90
2019-05-19T15:03:23.912Z,17.00
2019-05-19T15:05:52.776Z,16.80
2019-05-19T15:08:21.962Z,16.70
2019-05-19T15:10:51.155Z,17.00
2019-05-19T15:13:20.351Z,17.20
2019-05-19T15:15:49.174Z,17.50
2019-05-19T15:18:17.951Z,17.70
2019-05-19T15:20:46.897Z,17.60
2019-05-19T15:23:15.697Z,17.60
2019-05-19T15:25:44.922Z,17.60
2019-05-19T15:28:13.744Z,17.50
2019-05-19T15:30:42.621Z,17.80
2019-05-19T15:33:11.486Z,17.70
2019-05-19T15:35:40.563Z,17.70
2019-05-19T15:38:09.879Z,17.50
2019-05-19T15:40:38.722Z,17.50
2019-05-19T15:43:07.934Z,17.90
2019-05-19T15:45:36.774Z,17.90
2019-05-19T15:48:05.580Z,18.10
2019-05-19T15:50:34.378Z,18.00
2019-05-19T15:53:03.234Z,17.60
2019-05-19T15:55:32.079Z,17.60
2019-05-19T15:58:15.441Z,17.70
2019-05-19T16:00:31.346Z,17.50
2019-05-19T16:03:00.164Z,17.60
2019-05-19T16:05:28.975Z,17.70
2019-05-19T16:07:57.813Z,18.00
2019-05-19T16:10:26.952Z,17.70
2019-05-19T16:12:55.720Z,17.60
2019-05-19T16:15:24.654Z,17.10
2019-05-19T16:17:53.831Z,17.00
2019-05-19T16:20:22.671Z,17.00
2019-05-19T16:22:51.551Z,17.50
2019-05-19T16:25:20.422Z,17.70
2019-05-19T16:27:49.494Z,18.00
2019-05-19T16:30:18.601Z,17.80
2019-05-19T16:32:47.463Z,17.30
2019-05-19T16:35:16.293Z,17.30
2019-05-19T16:37:45.143Z,17.40
2019-05-19T16:40:13.994Z,17.00
2019-05-19T16:42:42.794Z,17.10
2019-05-19T16:45:11.826Z,17.60
2019-05-19T16:47:40.818Z,17.60
2019-05-19T16:50:10.768Z,17.70
2019-05-19T16:52:39.600Z,17.60
2019-05-19T16:55:28.764Z,17.30
2019-05-19T16:57:57.534Z,17.20
2019-05-19T17:00:28.268Z,17.30
2019-05-19T17:02:57.402Z,17.60
2019-05-19T17:05:26.217Z,17.50
2019-05-19T17:07:55.164Z,17.30
2019-05-19T17:10:23.908Z,17.20
2019-05-19T17:12:52.671Z,16.90
2019-05-19T17:15:21.883Z,16.80
2019-05-19T17:17:50.708Z,16.60
2019-05-19T17:20:20.127Z,16.60
2019-05-19T17:22:50.527Z,16.70
2019-05-19T17:25:22.189Z,16.70
2019-05-19T17:27:51.507Z,16.70
2019-05-19T17:30:20.975Z,16.60
2019-05-19T17:32:49.789Z,16.60
2019-05-19T17:35:18.684Z,16.70
2019-05-19T17:37:47.536Z,16.40
2019-05-19T17:40:16.984Z,16.50
2019-05-19T17:42:46.093Z,16.40
2019-05-19T17:45:15.403Z,16.60
2019-05-19T17:47:44.297Z,16.30
2019-05-19T17:50:13.622Z,16.30
2019-05-19T17:52:42.648Z,16.40
2019-05-19T17:55:11.455Z,16.50
2019-05-19T17:57:41.380Z,16.50
2019-05-19T18:00:10.728Z,16.50
2019-05-19T18:02:39.631Z,16.50
2019-05-19T18:05:08.784Z,16.40
2019-05-19T18:07:37.949Z,16.10
2019-05-19T18:10:07.487Z,16.20
2019-05-19T18:12:36.289Z,15.90
2019-05-19T18:15:06.545Z,15.80
2019-05-19T18:17:35.355Z,15.30
2019-05-19T18:20:06.393Z,15.30
2019-05-19T18:22:35.595Z,15.30
2019-05-19T18:25:06.092Z,15.30
2019-05-19T18:27:34.867Z,15.50
2019-05-19T18:30:04.523Z,15.50
2019-05-19T18:32:33.726Z,15.40
2019-05-19T18:35:02.554Z,15.10
2019-05-19T18:37:31.527Z,15.20
2019-05-19T18:40:00.577Z,15.30
2019-05-19T18:42:29.788Z,15.30
2019-05-19T18:44:58.608Z,15.10
2019-05-19T18:47:27.450Z,15.10
2019-05-19T18:49:56.663Z,14.70
2019-05-19T18:52:25.454Z,14.80
2019-05-19T18:54:54.315Z,14.70
2019-05-19T18:57:23.173Z,14.60
2019-05-19T18:59:51.976Z,14.60
2019-05-19T19:02:20.946Z,14.90
2019-05-19T19:04:49.744Z,14.90
2019-05-19T19:07:18.550Z,14.90
2019-05-19T19:09:47.410Z,15.00
2019-05-19T19:12:16.222Z,14.70
2019-05-19T19:14:45.030Z,14.70
2019-05-19T19:17:13.886Z,14.60
2019-05-19T19:19:42.628Z,14.80
2019-05-19T19:22:11.420Z,14.70
2019-05-19T19:24:40.272Z,14.80
2019-05-19T19:27:09.078Z,14.50
2019-05-19T19:29:38.175Z,14.40
2019-05-19T19:32:07.031Z,14.50
2019-05-19T19:34:37.072Z,14.60
2019-05-19T19:37:05.783Z,14.60
2019-05-19T19:39:34.649Z,14.60
2019-05-19T19:42:03.447Z,14.30
2019-05-19T19:44:32.305Z,14.20
2019-05-19T19:47:01.656Z,14.10
2019-05-19T19:49:30.436Z,13.80
2019-05-19T19:51:59.299Z,13.70
2019-05-19T19:54:28.095Z,13.60
2019-05-19T19:56:56.904Z,13.50
2019-05-19T19:59:26.167Z,13.40
2019-05-19T20:01:55.206Z,13.10
2019-05-19T20:04:23.920Z,13.10
2019-05-19T20:06:52.756Z,13.10
2019-05-19T20:09:21.576Z,13.10
2019-05-19T20:11:50.412Z,13.00
2019-05-19T20:14:19.229Z,12.90
2019-05-19T20:16:48.063Z,12.80
2019-05-19T20:19:16.998Z,12.70
2019-05-19T20:21:45.856Z,12.60
2019-05-19T20:24:14.753Z,12.60
2019-05-19T20:26:43.577Z,12.50
2019-05-19T20:29:12.419Z,12.50
2019-05-19T20:31:41.314Z,12.40
2019-05-19T20:34:10.038Z,12.30
2019-05-19T20:36:38.851Z,12.20
2019-05-19T20:39:08.003Z,12.20
2019-05-19T20:41:36.837Z,12.10
2019-05-19T20:44:05.994Z,12.10
2019-05-19T20:46:34.885Z,12.00
2019-05-19T20:49:03.734Z,11.90
2019-05-19T20:51:35.329Z,11.80
2019-05-19T20:54:04.085Z,11.70
2019-05-19T20:56:33.218Z,11.60
2019-05-19T20:59:01.993Z,11.60
2019-05-19T21:01:30.716Z,11.50
2019-05-19T21:03:59.530Z,11.50
2019-05-19T21:06:28.750Z,11.40
2019-05-19T21:08:57.563Z,11.30
2019-05-19T21:11:26.748Z,11.20
2019-05-19T21:13:55.674Z,11.20
2019-05-19T21:16:24.610Z,11.20
2019-05-19T21:18:53.406Z,11.10
2019-05-19T21:21:22.247Z,11.10
2019-05-19T21:23:51.079Z,11.00
2019-05-19T21:26:20.027Z,11.00
2019-05-19T21:28:49.175Z,10.90
2019-05-19T21:31:17.913Z,10.80
2019-05-19T21:33:46.689Z,10.70
2019-05-19T21:36:15.484Z,10.50
2019-05-19T21:38:44.716Z,10.50
2019-05-19T21:41:13.560Z,10.40
2019-05-19T21:43:42.362Z,10.40
2019-05-19T21:46:11.172Z,10.40
2019-05-19T21:48:40.038Z,10.40
2019-05-19T21:51:08.854Z,10.40
2019-05-19T21:53:37.678Z,10.40
2019-05-19T21:56:06.525Z,10.40
2019-05-19T21:58:35.328Z,10.50
2019-05-19T22:01:04.178Z,10.50
2019-05-19T22:03:33.011Z,10.50
2019-05-19T22:06:01.824Z,10.40
2019-05-19T22:08:31.609Z,10.40
2019-05-19T22:11:00.402Z,10.50
2019-05-19T22:13:29.212Z,10.50
2019-05-19T22:16:11.779Z,10.50
2019-05-19T22:18:28.542Z,10.50
2019-05-19T22:20:57.496Z,10.50
2019-05-19T22:23:27.096Z,10.50
2019-05-19T22:25:56.190Z,10.50
2019-05-19T22:28:25.019Z,10.50
2019-05-19T22:30:53.828Z,10.50
2019-05-19T22:33:25.334Z,10.60
2019-05-19T22:35:54.166Z,10.60
2019-05-19T22:38:23.008Z,10.60
2019-05-19T22:40:51.967Z,10.60
2019-05-19T22:43:21.080Z,10.70
2019-05-19T22:45:49.927Z,10.70
2019-05-19T22:48:18.736Z,10.70
2019-05-19T22:50:47.500Z,10.70
2019-05-19T22:53:16.356Z,10.70
2019-05-19T22:55:45.161Z,10.70
2019-05-19T22:58:14.001Z,10.70
2019-05-19T23:00:42.822Z,10.70
2019-05-19T23:03:11.665Z,10.60
2019-05-19T23:05:40.477Z,10.60
2019-05-19T23:08:09.590Z,10.70
2019-05-19T23:10:38.452Z,10.60
2019-05-19T23:13:08.391Z,10.50
2019-05-19T23:15:37.271Z,10.50
2019-05-19T23:18:06.139Z,10.50
2019-05-19T23:20:34.929Z,10.60
2019-05-19T23:23:03.838Z,10.50
2019-05-19T23:25:33.015Z,10.50
2019-05-19T23:28:02.797Z,10.50
2019-05-19T23:30:32.032Z,10.40
2019-05-19T23:33:00.835Z,10.50
2019-05-19T23:35:29.711Z,10.50
2019-05-19T23:37:58.514Z,10.50
2019-05-19T23:40:27.255Z,10.40
2019-05-19T23:42:56.078Z,10.40
2019-05-19T23:45:24.921Z,10.30
2019-05-19T23:47:54.041Z,10.30
2019-05-19T23:50:23.732Z,10.30
2019-05-19T23:52:53.584Z,10.30
2019-05-19T23:55:22.371Z,10.30
2019-05-19T23:57:52.032Z,10.30
